Portada
METAR-TAF:

METAR-TAF

Aeropuertos :

Abiyán, Costa de Marfil

Aeropuerto Port Bouet

latitud: 05-15N, longitud: 003-56W, altitud: 7 m

Observación

El informe se hizo hace 18 minutos, a las 04:00 UTC
Viento 4 kt del sur-suroeste
Temperatura 27°C
Humedad 94%
Presión 1011 hPa
Visibilidad 10 km o más
Escasas nubes a una altura de 1200 ft

METAR: DIAP 280400Z 21004KT 9999 FEW012 27/26 Q1011 NOSIG

Hora: 04:18 (04:18 UTC)

Pronóstico

El informe se hizo hace 5 horas y 18 minutos, a las 23:00 UTC
Pronóstico válido del 28 a las 00 UTC al 29 a las 06 UTC
Viento 3 kt con dirección variable
Visibilidad 10 km o más
Escasas nubes a una altura de 1200 ft
Probabilidad 30% :
Temporalmente
del 28 a las 05 UTC al 28 a las 11 UTC
Cielo nuboso a una altura de 1100 ft
Evolucionando progresivamente
del 28 a las 10 UTC al 28 a las 12 UTC
Viento 10 kt del sur-suroeste

TAF: DIAP 272300Z 2800/2906 VRB03KT 9999 FEW012 PROB30 TEMPO 2805/2811 BKN011 BECMG 2810/2812 20010KT

Observaciones y pronósticos meteorológicos de más de 4000 aeropuertos (mensajes METAR y TAF).

Los puntos amarillos y rojos representan las estaciones disponibles.

Ponga el ratón en el punto deseado para ver el nombre de la estación.

Haga clic para ver las observaciones y los pronósticos meteorológicos.

Para cambiar el mapa : haga clic en los botones verdes con una cruz de color negro para hacer un zoom, en el botón verde con un guión para alejar o en las flechas verdes para mapas adyacentes.


METAR-TAF: